sensor_id;sensor_type;location;lat;lon;timestamp;P1;durP1;ratioP1;P2;durP2;ratioP2
9260;SDS011;4667;42.726;23.252;2023-03-13T00:01:35;3.77;;;3.47;;
9260;SDS011;4667;42.726;23.252;2023-03-13T00:04:02;3.80;;;3.40;;
9260;SDS011;4667;42.726;23.252;2023-03-13T00:06:30;4.60;;;3.27;;
9260;SDS011;4667;42.726;23.252;2023-03-13T00:08:57;4.17;;;3.37;;
9260;SDS011;4667;42.726;23.252;2023-03-13T00:11:25;6.10;;;4.30;;
9260;SDS011;4667;42.726;23.252;2023-03-13T00:13:52;5.00;;;3.33;;
9260;SDS011;4667;42.726;23.252;2023-03-13T00:16:19;5.53;;;3.80;;
9260;SDS011;4667;42.726;23.252;2023-03-13T00:18:50;5.30;;;4.10;;
9260;SDS011;4667;42.726;23.252;2023-03-13T00:21:18;4.77;;;4.10;;
9260;SDS011;4667;42.726;23.252;2023-03-13T00:23:44;3.23;;;2.93;;
9260;SDS011;4667;42.726;23.252;2023-03-13T00:26:12;4.20;;;3.03;;
9260;SDS011;4667;42.726;23.252;2023-03-13T00:28:39;4.63;;;3.27;;
9260;SDS011;4667;42.726;23.252;2023-03-13T00:31:07;2.90;;;2.70;;
9260;SDS011;4667;42.726;23.252;2023-03-13T00:33:35;3.40;;;3.10;;
9260;SDS011;4667;42.726;23.252;2023-03-13T00:36:05;3.03;;;2.83;;
9260;SDS011;4667;42.726;23.252;2023-03-13T00:38:34;3.67;;;3.10;;
9260;SDS011;4667;42.726;23.252;2023-03-13T00:41:01;3.53;;;3.23;;
9260;SDS011;4667;42.726;23.252;2023-03-13T00:43:34;2.97;;;2.77;;
9260;SDS011;4667;42.726;23.252;2023-03-13T00:46:04;3.30;;;3.03;;
9260;SDS011;4667;42.726;23.252;2023-03-13T00:48:30;2.80;;;2.60;;
9260;SDS011;4667;42.726;23.252;2023-03-13T00:50:59;3.73;;;3.00;;
9260;SDS011;4667;42.726;23.252;2023-03-13T00:53:30;3.70;;;3.40;;
9260;SDS011;4667;42.726;23.252;2023-03-13T00:56:00;5.00;;;3.37;;
9260;SDS011;4667;42.726;23.252;2023-03-13T00:58:29;3.17;;;2.97;;
9260;SDS011;4667;42.726;23.252;2023-03-13T01:00:56;3.37;;;3.17;;
9260;SDS011;4667;42.726;23.252;2023-03-13T01:03:23;3.30;;;3.10;;
9260;SDS011;4667;42.726;23.252;2023-03-13T01:05:56;3.87;;;3.57;;
9260;SDS011;4667;42.726;23.252;2023-03-13T01:08:26;3.27;;;2.97;;
9260;SDS011;4667;42.726;23.252;2023-03-13T01:10:58;4.73;;;4.33;;
9260;SDS011;4667;42.726;23.252;2023-03-13T01:13:25;4.37;;;3.27;;
9260;SDS011;4667;42.726;23.252;2023-03-13T01:15:53;3.30;;;3.10;;
9260;SDS011;4667;42.726;23.252;2023-03-13T01:18:19;3.87;;;3.57;;
9260;SDS011;4667;42.726;23.252;2023-03-13T01:20:49;2.90;;;2.70;;
9260;SDS011;4667;42.726;23.252;2023-03-13T01:23:18;6.80;;;3.53;;
9260;SDS011;4667;42.726;23.252;2023-03-13T01:25:45;3.80;;;3.40;;
9260;SDS011;4667;42.726;23.252;2023-03-13T01:28:13;5.37;;;3.53;;
9260;SDS011;4667;42.726;23.252;2023-03-13T01:30:42;5.63;;;3.20;;
9260;SDS011;4667;42.726;23.252;2023-03-13T01:33:09;4.60;;;3.93;;
9260;SDS011;4667;42.726;23.252;2023-03-13T01:35:37;3.97;;;3.43;;
9260;SDS011;4667;42.726;23.252;2023-03-13T01:38:06;4.40;;;3.47;;
9260;SDS011;4667;42.726;23.252;2023-03-13T01:40:37;4.67;;;4.03;;
9260;SDS011;4667;42.726;23.252;2023-03-13T01:43:11;3.57;;;3.30;;
9260;SDS011;4667;42.726;23.252;2023-03-13T01:48:28;5.10;;;3.63;;
9260;SDS011;4667;42.726;23.252;2023-03-13T01:50:59;3.93;;;3.63;;
9260;SDS011;4667;42.726;23.252;2023-03-13T01:53:27;5.20;;;3.60;;
9260;SDS011;4667;42.726;23.252;2023-03-13T01:55:54;4.23;;;3.30;;
9260;SDS011;4667;42.726;23.252;2023-03-13T01:58:21;3.43;;;3.13;;
9260;SDS011;4667;42.726;23.252;2023-03-13T02:01:03;4.57;;;3.50;;
9260;SDS011;4667;42.726;23.252;2023-03-13T02:03:33;3.67;;;3.13;;
9260;SDS011;4667;42.726;23.252;2023-03-13T02:06:02;4.43;;;3.37;;
9260;SDS011;4667;42.726;23.252;2023-03-13T02:08:37;4.03;;;3.60;;
9260;SDS011;4667;42.726;23.252;2023-03-13T02:11:08;3.97;;;3.67;;
9260;SDS011;4667;42.726;23.252;2023-03-13T02:13:39;2.60;;;2.40;;
9260;SDS011;4667;42.726;23.252;2023-03-13T02:16:06;3.30;;;2.70;;
9260;SDS011;4667;42.726;23.252;2023-03-13T02:18:36;3.30;;;3.00;;
9260;SDS011;4667;42.726;23.252;2023-03-13T02:21:07;3.70;;;3.40;;
9260;SDS011;4667;42.726;23.252;2023-03-13T02:23:38;3.10;;;2.80;;
9260;SDS011;4667;42.726;23.252;2023-03-13T02:26:08;6.93;;;3.33;;
9260;SDS011;4667;42.726;23.252;2023-03-13T02:28:45;4.67;;;4.23;;
9260;SDS011;4667;42.726;23.252;2023-03-13T02:31:11;9.00;;;3.50;;
9260;SDS011;4667;42.726;23.252;2023-03-13T02:33:43;5.93;;;4.30;;
9260;SDS011;4667;42.726;23.252;2023-03-13T02:36:13;6.90;;;3.90;;
9260;SDS011;4667;42.726;23.252;2023-03-13T02:38:46;5.03;;;4.50;;
9260;SDS011;4667;42.726;23.252;2023-03-13T02:41:19;4.53;;;3.80;;
9260;SDS011;4667;42.726;23.252;2023-03-13T02:43:48;5.23;;;4.17;;
9260;SDS011;4667;42.726;23.252;2023-03-13T02:46:15;5.37;;;3.60;;
9260;SDS011;4667;42.726;23.252;2023-03-13T02:48:43;4.30;;;3.90;;
9260;SDS011;4667;42.726;23.252;2023-03-13T02:51:12;6.00;;;3.20;;
9260;SDS011;4667;42.726;23.252;2023-03-13T02:53:40;4.70;;;3.70;;
9260;SDS011;4667;42.726;23.252;2023-03-13T02:56:09;5.70;;;4.30;;
9260;SDS011;4667;42.726;23.252;2023-03-13T02:58:41;3.87;;;3.50;;
9260;SDS011;4667;42.726;23.252;2023-03-13T03:01:09;4.37;;;3.73;;
9260;SDS011;4667;42.726;23.252;2023-03-13T03:03:36;3.83;;;3.40;;
9260;SDS011;4667;42.726;23.252;2023-03-13T03:06:04;5.20;;;3.53;;
9260;SDS011;4667;42.726;23.252;2023-03-13T03:08:35;4.27;;;3.87;;
9260;SDS011;4667;42.726;23.252;2023-03-13T03:11:06;3.50;;;3.20;;
9260;SDS011;4667;42.726;23.252;2023-03-13T03:13:37;4.10;;;3.70;;
9260;SDS011;4667;42.726;23.252;2023-03-13T03:16:06;3.07;;;2.87;;
9260;SDS011;4667;42.726;23.252;2023-03-13T03:18:36;3.47;;;3.17;;
9260;SDS011;4667;42.726;23.252;2023-03-13T03:21:05;3.83;;;3.53;;
9260;SDS011;4667;42.726;23.252;2023-03-13T03:23:33;5.47;;;3.70;;
9260;SDS011;4667;42.726;23.252;2023-03-13T03:26:00;3.63;;;3.33;;
9260;SDS011;4667;42.726;23.252;2023-03-13T03:28:30;6.90;;;3.93;;
9260;SDS011;4667;42.726;23.252;2023-03-13T03:31:02;3.40;;;3.10;;
9260;SDS011;4667;42.726;23.252;2023-03-13T03:33:30;6.17;;;3.30;;
9260;SDS011;4667;42.726;23.252;2023-03-13T03:35:59;4.03;;;3.73;;
9260;SDS011;4667;42.726;23.252;2023-03-13T03:38:26;3.20;;;3.00;;
9260;SDS011;4667;42.726;23.252;2023-03-13T03:40:52;3.90;;;3.50;;
9260;SDS011;4667;42.726;23.252;2023-03-13T03:43:19;3.53;;;3.33;;
9260;SDS011;4667;42.726;23.252;2023-03-13T03:45:46;4.33;;;3.93;;
9260;SDS011;4667;42.726;23.252;2023-03-13T03:48:15;4.07;;;3.57;;
9260;SDS011;4667;42.726;23.252;2023-03-13T03:50:45;3.97;;;3.57;;
9260;SDS011;4667;42.726;23.252;2023-03-13T03:53:20;4.40;;;3.87;;
9260;SDS011;4667;42.726;23.252;2023-03-13T03:55:50;4.30;;;3.97;;
9260;SDS011;4667;42.726;23.252;2023-03-13T03:58:21;3.27;;;3.00;;
9260;SDS011;4667;42.726;23.252;2023-03-13T04:00:52;5.10;;;3.93;;
9260;SDS011;4667;42.726;23.252;2023-03-13T04:03:32;4.30;;;3.00;;
9260;SDS011;4667;42.726;23.252;2023-03-13T04:06:14;5.00;;;4.50;;
9260;SDS011;4667;42.726;23.252;2023-03-13T04:08:46;3.93;;;3.63;;
9260;SDS011;4667;42.726;23.252;2023-03-13T04:11:21;3.47;;;3.27;;
9260;SDS011;4667;42.726;23.252;2023-03-13T04:14:01;6.80;;;4.63;;
9260;SDS011;4667;42.726;23.252;2023-03-13T04:16:31;8.37;;;4.47;;
9260;SDS011;4667;42.726;23.252;2023-03-13T04:19:44;7.80;;;4.00;;
9260;SDS011;4667;42.726;23.252;2023-03-13T04:39:21;5.47;;;3.90;;
9260;SDS011;4667;42.726;23.252;2023-03-13T04:45:18;4.60;;;4.20;;
9260;SDS011;4667;42.726;23.252;2023-03-13T04:48:02;5.83;;;4.57;;
9260;SDS011;4667;42.726;23.252;2023-03-13T05:07:31;5.57;;;5.00;;
9260;SDS011;4667;42.726;23.252;2023-03-13T05:10:01;6.40;;;5.47;;
9260;SDS011;4667;42.726;23.252;2023-03-13T05:16:10;5.23;;;4.83;;
9260;SDS011;4667;42.726;23.252;2023-03-13T06:42:30;11.53;;;8.30;;
9260;SDS011;4667;42.726;23.252;2023-03-13T06:44:58;16.53;;;8.13;;
9260;SDS011;4667;42.726;23.252;2023-03-13T06:47:29;14.13;;;7.67;;
9260;SDS011;4667;42.726;23.252;2023-03-13T06:50:11;9.73;;;7.30;;
9260;SDS011;4667;42.726;23.252;2023-03-13T06:52:50;6.33;;;5.57;;
9260;SDS011;4667;42.726;23.252;2023-03-13T06:55:18;6.43;;;5.70;;
9260;SDS011;4667;42.726;23.252;2023-03-13T07:00:42;5.73;;;4.87;;
9260;SDS011;4667;42.726;23.252;2023-03-13T07:03:23;5.00;;;4.57;;
9260;SDS011;4667;42.726;23.252;2023-03-13T07:05:54;7.40;;;3.83;;
9260;SDS011;4667;42.726;23.252;2023-03-13T07:08:21;5.47;;;4.97;;
9260;SDS011;4667;42.726;23.252;2023-03-13T07:10:57;8.57;;;4.60;;
9260;SDS011;4667;42.726;23.252;2023-03-13T07:13:32;4.30;;;3.90;;
9260;SDS011;4667;42.726;23.252;2023-03-13T07:16:18;4.47;;;4.13;;
9260;SDS011;4667;42.726;23.252;2023-03-13T07:19:00;6.37;;;4.77;;
9260;SDS011;4667;42.726;23.252;2023-03-13T07:21:28;7.90;;;4.50;;
9260;SDS011;4667;42.726;23.252;2023-03-13T07:24:10;5.67;;;3.50;;
9260;SDS011;4667;42.726;23.252;2023-03-13T07:29:25;4.80;;;4.40;;
9260;SDS011;4667;42.726;23.252;2023-03-13T07:31:55;4.37;;;3.97;;
9260;SDS011;4667;42.726;23.252;2023-03-13T07:34:22;4.07;;;3.60;;
9260;SDS011;4667;42.726;23.252;2023-03-13T07:36:48;4.77;;;3.70;;
9260;SDS011;4667;42.726;23.252;2023-03-13T07:39:15;9.70;;;6.70;;
9260;SDS011;4667;42.726;23.252;2023-03-13T07:41:41;4.77;;;4.27;;
9260;SDS011;4667;42.726;23.252;2023-03-13T07:44:07;5.43;;;4.13;;
9260;SDS011;4667;42.726;23.252;2023-03-13T07:46:34;7.77;;;4.77;;
9260;SDS011;4667;42.726;23.252;2023-03-13T07:49:02;5.23;;;4.63;;
9260;SDS011;4667;42.726;23.252;2023-03-13T07:51:28;6.03;;;4.43;;
9260;SDS011;4667;42.726;23.252;2023-03-13T07:53:55;5.20;;;4.80;;
9260;SDS011;4667;42.726;23.252;2023-03-13T07:56:21;6.10;;;5.40;;
9260;SDS011;4667;42.726;23.252;2023-03-13T07:58:48;4.60;;;3.80;;
9260;SDS011;4667;42.726;23.252;2023-03-13T08:01:17;7.77;;;5.03;;
9260;SDS011;4667;42.726;23.252;2023-03-13T08:03:44;5.33;;;4.10;;
9260;SDS011;4667;42.726;23.252;2023-03-13T08:06:15;5.23;;;4.57;;
9260;SDS011;4667;42.726;23.252;2023-03-13T08:08:42;4.77;;;4.07;;
9260;SDS011;4667;42.726;23.252;2023-03-13T08:11:09;6.00;;;4.13;;
9260;SDS011;4667;42.726;23.252;2023-03-13T08:13:36;5.20;;;4.70;;
9260;SDS011;4667;42.726;23.252;2023-03-13T08:16:03;5.07;;;3.57;;
9260;SDS011;4667;42.726;23.252;2023-03-13T08:18:30;5.40;;;4.27;;
9260;SDS011;4667;42.726;23.252;2023-03-13T08:21:02;9.63;;;5.10;;
9260;SDS011;4667;42.726;23.252;2023-03-13T08:23:30;5.53;;;4.10;;
9260;SDS011;4667;42.726;23.252;2023-03-13T08:26:00;4.60;;;4.07;;
9260;SDS011;4667;42.726;23.252;2023-03-13T08:28:26;5.60;;;4.60;;
9260;SDS011;4667;42.726;23.252;2023-03-13T08:30:53;4.33;;;3.93;;
9260;SDS011;4667;42.726;23.252;2023-03-13T08:33:19;3.33;;;3.03;;
9260;SDS011;4667;42.726;23.252;2023-03-13T08:35:46;4.27;;;3.17;;
9260;SDS011;4667;42.726;23.252;2023-03-13T08:38:12;3.57;;;3.27;;
9260;SDS011;4667;42.726;23.252;2023-03-13T08:40:40;3.83;;;3.27;;
9260;SDS011;4667;42.726;23.252;2023-03-13T08:43:07;4.60;;;3.70;;
9260;SDS011;4667;42.726;23.252;2023-03-13T08:45:33;4.57;;;3.63;;
9260;SDS011;4667;42.726;23.252;2023-03-13T08:48:00;5.97;;;4.60;;
9260;SDS011;4667;42.726;23.252;2023-03-13T08:50:26;3.47;;;3.17;;
9260;SDS011;4667;42.726;23.252;2023-03-13T08:52:53;4.70;;;3.53;;
9260;SDS011;4667;42.726;23.252;2023-03-13T08:55:19;4.23;;;3.83;;
9260;SDS011;4667;42.726;23.252;2023-03-13T08:57:47;4.53;;;3.43;;
9260;SDS011;4667;42.726;23.252;2023-03-13T09:00:14;5.13;;;4.07;;
9260;SDS011;4667;42.726;23.252;2023-03-13T09:02:41;5.57;;;3.80;;
9260;SDS011;4667;42.726;23.252;2023-03-13T09:05:07;4.17;;;3.87;;
9260;SDS011;4667;42.726;23.252;2023-03-13T09:07:34;7.07;;;4.67;;
9260;SDS011;4667;42.726;23.252;2023-03-13T09:10:00;4.80;;;3.47;;
9260;SDS011;4667;42.726;23.252;2023-03-13T09:12:27;4.33;;;3.87;;
9260;SDS011;4667;42.726;23.252;2023-03-13T09:14:56;4.27;;;3.67;;
9260;SDS011;4667;42.726;23.252;2023-03-13T09:17:22;5.13;;;3.60;;
9260;SDS011;4667;42.726;23.252;2023-03-13T09:19:50;6.97;;;5.10;;
9260;SDS011;4667;42.726;23.252;2023-03-13T09:22:16;5.73;;;4.53;;
9260;SDS011;4667;42.726;23.252;2023-03-13T09:24:43;4.80;;;3.90;;
9260;SDS011;4667;42.726;23.252;2023-03-13T09:27:09;4.37;;;3.83;;
9260;SDS011;4667;42.726;23.252;2023-03-13T09:29:37;8.20;;;4.27;;
9260;SDS011;4667;42.726;23.252;2023-03-13T09:32:07;5.20;;;4.07;;
9260;SDS011;4667;42.726;23.252;2023-03-13T09:34:36;6.40;;;4.53;;
9260;SDS011;4667;42.726;23.252;2023-03-13T09:37:03;5.33;;;4.33;;
9260;SDS011;4667;42.726;23.252;2023-03-13T09:39:31;10.70;;;5.47;;
9260;SDS011;4667;42.726;23.252;2023-03-13T09:42:00;5.73;;;4.77;;
9260;SDS011;4667;42.726;23.252;2023-03-13T09:44:43;9.83;;;5.17;;
9260;SDS011;4667;42.726;23.252;2023-03-13T09:47:15;5.43;;;4.13;;
9260;SDS011;4667;42.726;23.252;2023-03-13T09:49:58;6.07;;;5.07;;
9260;SDS011;4667;42.726;23.252;2023-03-13T09:52:27;4.53;;;4.13;;
9260;SDS011;4667;42.726;23.252;2023-03-13T09:54:56;4.13;;;3.73;;
9260;SDS011;4667;42.726;23.252;2023-03-13T09:57:26;7.37;;;4.93;;
9260;SDS011;4667;42.726;23.252;2023-03-13T09:59:56;6.97;;;4.47;;
9260;SDS011;4667;42.726;23.252;2023-03-13T10:05:21;5.97;;;4.63;;
9260;SDS011;4667;42.726;23.252;2023-03-13T10:07:48;6.50;;;3.95;;
9260;SDS011;4667;42.726;23.252;2023-03-13T10:10:15;4.90;;;4.23;;
9260;SDS011;4667;42.726;23.252;2023-03-13T10:12:43;5.83;;;4.33;;
9260;SDS011;4667;42.726;23.252;2023-03-13T10:15:33;5.33;;;4.40;;
9260;SDS011;4667;42.726;23.252;2023-03-13T10:18:09;5.18;;;3.95;;
9260;SDS011;4667;42.726;23.252;2023-03-13T10:23:14;5.68;;;4.50;;
9260;SDS011;4667;42.726;23.252;2023-03-13T10:25:42;4.20;;;3.75;;
9260;SDS011;4667;42.726;23.252;2023-03-13T10:28:09;4.80;;;3.45;;
9260;SDS011;4667;42.726;23.252;2023-03-13T10:30:37;7.18;;;4.65;;
9260;SDS011;4667;42.726;23.252;2023-03-13T10:33:19;6.00;;;4.35;;
9260;SDS011;4667;42.726;23.252;2023-03-13T10:35:58;7.97;;;3.90;;
9260;SDS011;4667;42.726;23.252;2023-03-13T10:38:31;4.80;;;3.85;;
9260;SDS011;4667;42.726;23.252;2023-03-13T10:41:00;8.48;;;5.28;;
9260;SDS011;4667;42.726;23.252;2023-03-13T10:43:28;7.13;;;4.75;;
9260;SDS011;4667;42.726;23.252;2023-03-13T10:45:57;7.38;;;4.07;;
9260;SDS011;4667;42.726;23.252;2023-03-13T10:48:24;7.47;;;4.72;;
9260;SDS011;4667;42.726;23.252;2023-03-13T10:50:51;6.38;;;4.53;;
9260;SDS011;4667;42.726;23.252;2023-03-13T10:53:25;5.95;;;4.30;;
9260;SDS011;4667;42.726;23.252;2023-03-13T10:55:59;6.07;;;4.78;;
9260;SDS011;4667;42.726;23.252;2023-03-13T10:58:29;4.93;;;4.03;;
9260;SDS011;4667;42.726;23.252;2023-03-13T11:01:08;4.53;;;3.75;;
9260;SDS011;4667;42.726;23.252;2023-03-13T11:03:35;7.45;;;4.90;;
9260;SDS011;4667;42.726;23.252;2023-03-13T11:06:02;7.93;;;4.82;;
9260;SDS011;4667;42.726;23.252;2023-03-13T11:08:32;5.47;;;3.85;;
9260;SDS011;4667;42.726;23.252;2023-03-13T11:11:01;6.47;;;4.85;;
9260;SDS011;4667;42.726;23.252;2023-03-13T11:13:35;9.68;;;5.50;;
9260;SDS011;4667;42.726;23.252;2023-03-13T11:16:05;5.03;;;3.80;;
9260;SDS011;4667;42.726;23.252;2023-03-13T11:18:35;5.82;;;4.53;;
9260;SDS011;4667;42.726;23.252;2023-03-13T11:21:03;6.30;;;4.70;;
9260;SDS011;4667;42.726;23.252;2023-03-13T11:23:32;4.57;;;3.65;;
9260;SDS011;4667;42.726;23.252;2023-03-13T11:26:04;5.32;;;4.43;;
9260;SDS011;4667;42.726;23.252;2023-03-13T11:28:38;10.60;;;4.97;;
9260;SDS011;4667;42.726;23.252;2023-03-13T11:31:09;9.00;;;5.07;;
9260;SDS011;4667;42.726;23.252;2023-03-13T11:33:37;6.15;;;4.65;;
9260;SDS011;4667;42.726;23.252;2023-03-13T11:36:08;4.70;;;4.20;;
9260;SDS011;4667;42.726;23.252;2023-03-13T11:38:38;6.32;;;4.85;;
9260;SDS011;4667;42.726;23.252;2023-03-13T11:41:14;9.82;;;5.35;;
9260;SDS011;4667;42.726;23.252;2023-03-13T11:43:53;7.28;;;4.35;;
9260;SDS011;4667;42.726;23.252;2023-03-13T11:46:24;6.75;;;5.45;;
9260;SDS011;4667;42.726;23.252;2023-03-13T11:48:57;7.68;;;5.05;;
9260;SDS011;4667;42.726;23.252;2023-03-13T11:51:31;9.75;;;5.10;;
9260;SDS011;4667;42.726;23.252;2023-03-13T11:54:18;8.52;;;5.28;;
9260;SDS011;4667;42.726;23.252;2023-03-13T11:56:51;8.23;;;5.25;;
9260;SDS011;4667;42.726;23.252;2023-03-13T11:59:27;5.82;;;4.47;;
9260;SDS011;4667;42.726;23.252;2023-03-13T12:04:25;7.20;;;5.50;;
9260;SDS011;4667;42.726;23.252;2023-03-13T12:07:01;6.30;;;4.40;;
9260;SDS011;4667;42.726;23.252;2023-03-13T12:09:30;8.73;;;5.65;;
9260;SDS011;4667;42.726;23.252;2023-03-13T12:24:45;6.25;;;5.05;;
9260;SDS011;4667;42.726;23.252;2023-03-13T12:27:16;5.50;;;4.18;;
9260;SDS011;4667;42.726;23.252;2023-03-13T12:29:54;4.53;;;4.05;;
9260;SDS011;4667;42.726;23.252;2023-03-13T12:32:23;8.63;;;5.75;;
9260;SDS011;4667;42.726;23.252;2023-03-13T12:34:56;5.97;;;5.05;;
9260;SDS011;4667;42.726;23.252;2023-03-13T12:37:25;7.03;;;5.20;;
9260;SDS011;4667;42.726;23.252;2023-03-13T12:39:56;6.05;;;4.82;;
9260;SDS011;4667;42.726;23.252;2023-03-13T12:42:27;5.75;;;4.60;;
9260;SDS011;4667;42.726;23.252;2023-03-13T12:44:59;5.90;;;4.60;;
9260;SDS011;4667;42.726;23.252;2023-03-13T12:47:29;6.32;;;4.60;;
9260;SDS011;4667;42.726;23.252;2023-03-13T12:50:10;7.07;;;4.93;;
9260;SDS011;4667;42.726;23.252;2023-03-13T12:52:56;7.57;;;4.65;;
9260;SDS011;4667;42.726;23.252;2023-03-13T12:58:38;6.40;;;4.07;;
9260;SDS011;4667;42.726;23.252;2023-03-13T13:01:10;7.50;;;4.53;;
9260;SDS011;4667;42.726;23.252;2023-03-13T13:03:54;7.18;;;4.80;;
9260;SDS011;4667;42.726;23.252;2023-03-13T13:06:21;7.60;;;4.85;;
9260;SDS011;4667;42.726;23.252;2023-03-13T13:11:47;6.30;;;3.85;;
9260;SDS011;4667;42.726;23.252;2023-03-13T13:23:30;4.18;;;3.45;;
9260;SDS011;4667;42.726;23.252;2023-03-13T13:32:40;4.75;;;3.38;;
9260;SDS011;4667;42.726;23.252;2023-03-13T13:35:30;3.58;;;3.28;;
9260;SDS011;4667;42.726;23.252;2023-03-13T13:40:58;4.35;;;3.10;;
9260;SDS011;4667;42.726;23.252;2023-03-13T13:43:27;4.13;;;3.35;;
9260;SDS011;4667;42.726;23.252;2023-03-13T13:46:03;4.03;;;3.15;;
9260;SDS011;4667;42.726;23.252;2023-03-13T13:48:33;4.50;;;3.30;;
9260;SDS011;4667;42.726;23.252;2023-03-13T13:54:01;4.72;;;3.40;;
9260;SDS011;4667;42.726;23.252;2023-03-13T13:56:35;3.72;;;3.42;;
9260;SDS011;4667;42.726;23.252;2023-03-13T14:01:49;7.32;;;4.63;;
9260;SDS011;4667;42.726;23.252;2023-03-13T14:04:32;6.60;;;3.97;;
9260;SDS011;4667;42.726;23.252;2023-03-13T14:07:14;4.03;;;3.60;;
9260;SDS011;4667;42.726;23.252;2023-03-13T14:09:57;4.72;;;4.13;;
9260;SDS011;4667;42.726;23.252;2023-03-13T14:15:13;4.43;;;4.03;;
9260;SDS011;4667;42.726;23.252;2023-03-13T14:17:41;5.22;;;3.58;;
9260;SDS011;4667;42.726;23.252;2023-03-13T14:20:22;4.47;;;3.85;;
9260;SDS011;4667;42.726;23.252;2023-03-13T14:22:50;4.47;;;3.80;;
9260;SDS011;4667;42.726;23.252;2023-03-13T14:25:19;4.35;;;3.92;;
9260;SDS011;4667;42.726;23.252;2023-03-13T14:28:00;4.65;;;3.83;;
9260;SDS011;4667;42.726;23.252;2023-03-13T14:33:34;5.68;;;4.13;;
9260;SDS011;4667;42.726;23.252;2023-03-13T14:38:30;6.03;;;4.15;;
9260;SDS011;4667;42.726;23.252;2023-03-13T14:51:26;4.00;;;3.58;;
9260;SDS011;4667;42.726;23.252;2023-03-13T14:56:42;5.45;;;4.03;;
9260;SDS011;4667;42.726;23.252;2023-03-13T14:59:23;9.27;;;5.13;;
9260;SDS011;4667;42.726;23.252;2023-03-13T15:01:56;6.38;;;4.15;;
9260;SDS011;4667;42.726;23.252;2023-03-13T15:09:57;5.55;;;4.35;;
9260;SDS011;4667;42.726;23.252;2023-03-13T15:12:25;4.55;;;3.92;;
9260;SDS011;4667;42.726;23.252;2023-03-13T15:14:53;6.30;;;4.28;;
9260;SDS011;4667;42.726;23.252;2023-03-13T15:17:21;7.10;;;4.57;;
9260;SDS011;4667;42.726;23.252;2023-03-13T15:19:49;6.23;;;3.83;;
9260;SDS011;4667;42.726;23.252;2023-03-13T15:22:16;5.00;;;4.03;;
9260;SDS011;4667;42.726;23.252;2023-03-13T15:27:53;6.70;;;3.93;;
9260;SDS011;4667;42.726;23.252;2023-03-13T15:30:21;3.40;;;3.10;;
9260;SDS011;4667;42.726;23.252;2023-03-13T15:32:56;4.50;;;3.37;;
9260;SDS011;4667;42.726;23.252;2023-03-13T15:35:28;6.70;;;4.13;;
9260;SDS011;4667;42.726;23.252;2023-03-13T15:40:56;4.70;;;3.53;;
9260;SDS011;4667;42.726;23.252;2023-03-13T15:43:44;4.07;;;3.43;;
9260;SDS011;4667;42.726;23.252;2023-03-13T15:46:12;4.00;;;3.00;;
9260;SDS011;4667;42.726;23.252;2023-03-13T15:48:40;4.93;;;3.77;;
9260;SDS011;4667;42.726;23.252;2023-03-13T15:51:08;6.93;;;4.53;;
9260;SDS011;4667;42.726;23.252;2023-03-13T15:53:36;4.80;;;3.87;;
9260;SDS011;4667;42.726;23.252;2023-03-13T15:56:08;5.97;;;3.70;;
9260;SDS011;4667;42.726;23.252;2023-03-13T15:58:37;7.07;;;4.10;;
9260;SDS011;4667;42.726;23.252;2023-03-13T16:04:03;4.07;;;3.10;;
9260;SDS011;4667;42.726;23.252;2023-03-13T16:06:33;4.57;;;3.83;;
9260;SDS011;4667;42.726;23.252;2023-03-13T16:09:06;4.13;;;3.47;;
9260;SDS011;4667;42.726;23.252;2023-03-13T16:11:36;4.43;;;3.53;;
9260;SDS011;4667;42.726;23.252;2023-03-13T16:14:05;4.23;;;3.53;;
9260;SDS011;4667;42.726;23.252;2023-03-13T16:16:33;5.03;;;3.73;;
9260;SDS011;4667;42.726;23.252;2023-03-13T16:19:03;5.00;;;3.63;;
9260;SDS011;4667;42.726;23.252;2023-03-13T16:21:34;6.23;;;4.20;;
9260;SDS011;4667;42.726;23.252;2023-03-13T16:24:05;7.13;;;3.93;;
9260;SDS011;4667;42.726;23.252;2023-03-13T16:26:46;4.33;;;3.63;;
9260;SDS011;4667;42.726;23.252;2023-03-13T16:29:15;7.17;;;4.73;;
9260;SDS011;4667;42.726;23.252;2023-03-13T16:31:47;6.00;;;4.57;;
9260;SDS011;4667;42.726;23.252;2023-03-13T16:34:19;7.00;;;5.17;;
9260;SDS011;4667;42.726;23.252;2023-03-13T16:36:57;7.03;;;5.00;;
9260;SDS011;4667;42.726;23.252;2023-03-13T16:39:27;8.20;;;4.67;;
9260;SDS011;4667;42.726;23.252;2023-03-13T16:42:11;5.97;;;4.40;;
9260;SDS011;4667;42.726;23.252;2023-03-13T16:44:38;5.30;;;4.37;;
9260;SDS011;4667;42.726;23.252;2023-03-13T16:47:07;6.27;;;4.03;;
9260;SDS011;4667;42.726;23.252;2023-03-13T16:49:35;6.10;;;4.37;;
9260;SDS011;4667;42.726;23.252;2023-03-13T16:52:16;7.97;;;5.60;;
9260;SDS011;4667;42.726;23.252;2023-03-13T16:54:43;7.80;;;4.60;;
9260;SDS011;4667;42.726;23.252;2023-03-13T16:57:11;6.10;;;4.97;;
9260;SDS011;4667;42.726;23.252;2023-03-13T16:59:38;8.37;;;5.73;;
9260;SDS011;4667;42.726;23.252;2023-03-13T17:02:19;4.57;;;3.80;;
9260;SDS011;4667;42.726;23.252;2023-03-13T17:08:04;7.83;;;5.67;;
9260;SDS011;4667;42.726;23.252;2023-03-13T17:10:57;8.60;;;6.00;;
9260;SDS011;4667;42.726;23.252;2023-03-13T17:13:37;7.97;;;5.83;;
9260;SDS011;4667;42.726;23.252;2023-03-13T17:16:18;6.90;;;5.37;;
9260;SDS011;4667;42.726;23.252;2023-03-13T17:21:34;13.63;;;6.97;;
9260;SDS011;4667;42.726;23.252;2023-03-13T19:13:04;22.63;;;10.50;;
9260;SDS011;4667;42.726;23.252;2023-03-13T19:15:31;25.13;;;10.53;;
9260;SDS011;4667;42.726;23.252;2023-03-13T19:17:58;15.77;;;11.17;;
9260;SDS011;4667;42.726;23.252;2023-03-13T19:38:53;21.17;;;11.90;;
9260;SDS011;4667;42.726;23.252;2023-03-13T21:13:03;21.77;;;12.53;;
9260;SDS011;4667;42.726;23.252;2023-03-13T21:18:19;24.43;;;12.67;;
9260;SDS011;4667;42.726;23.252;2023-03-13T21:20:47;29.43;;;11.77;;
9260;SDS011;4667;42.726;23.252;2023-03-13T21:23:27;22.70;;;11.40;;
9260;SDS011;4667;42.726;23.252;2023-03-13T21:26:08;18.33;;;13.10;;
9260;SDS011;4667;42.726;23.252;2023-03-13T21:49:06;35.10;;;16.30;;
9260;SDS011;4667;42.726;23.252;2023-03-13T21:51:39;24.17;;;13.10;;
9260;SDS011;4667;42.726;23.252;2023-03-13T21:54:08;20.37;;;12.80;;
9260;SDS011;4667;42.726;23.252;2023-03-13T21:56:39;20.97;;;13.17;;
9260;SDS011;4667;42.726;23.252;2023-03-13T22:04:30;23.00;;;12.27;;
9260;SDS011;4667;42.726;23.252;2023-03-13T22:07:01;23.23;;;12.40;;
9260;SDS011;4667;42.726;23.252;2023-03-13T22:09:43;26.93;;;12.07;;
9260;SDS011;4667;42.726;23.252;2023-03-13T22:12:25;17.17;;;11.87;;
9260;SDS011;4667;42.726;23.252;2023-03-13T22:14:52;23.40;;;13.50;;
9260;SDS011;4667;42.726;23.252;2023-03-13T22:17:19;20.57;;;11.00;;
9260;SDS011;4667;42.726;23.252;2023-03-13T22:19:47;23.27;;;12.90;;
9260;SDS011;4667;42.726;23.252;2023-03-13T22:22:14;18.23;;;9.87;;
9260;SDS011;4667;42.726;23.252;2023-03-13T22:24:41;19.33;;;11.50;;
9260;SDS011;4667;42.726;23.252;2023-03-13T22:27:10;19.27;;;11.43;;
9260;SDS011;4667;42.726;23.252;2023-03-13T22:29:50;22.03;;;11.73;;
9260;SDS011;4667;42.726;23.252;2023-03-13T22:32:31;16.93;;;10.37;;
9260;SDS011;4667;42.726;23.252;2023-03-13T22:35:13;16.50;;;10.80;;
9260;SDS011;4667;42.726;23.252;2023-03-13T22:37:40;19.27;;;10.33;;
9260;SDS011;4667;42.726;23.252;2023-03-13T22:40:10;18.57;;;11.40;;
9260;SDS011;4667;42.726;23.252;2023-03-13T22:42:37;19.70;;;11.53;;
9260;SDS011;4667;42.726;23.252;2023-03-13T22:45:04;22.13;;;11.13;;
9260;SDS011;4667;42.726;23.252;2023-03-13T22:47:31;20.77;;;11.03;;
9260;SDS011;4667;42.726;23.252;2023-03-13T22:49:58;18.33;;;10.60;;
9260;SDS011;4667;42.726;23.252;2023-03-13T22:52:30;20.13;;;10.40;;
9260;SDS011;4667;42.726;23.252;2023-03-13T22:54:57;24.73;;;11.37;;
9260;SDS011;4667;42.726;23.252;2023-03-13T22:57:24;23.17;;;11.23;;
9260;SDS011;4667;42.726;23.252;2023-03-13T22:59:53;19.97;;;12.10;;
9260;SDS011;4667;42.726;23.252;2023-03-13T23:02:19;14.07;;;9.50;;
9260;SDS011;4667;42.726;23.252;2023-03-13T23:04:47;19.37;;;11.43;;
9260;SDS011;4667;42.726;23.252;2023-03-13T23:07:13;16.50;;;10.33;;
9260;SDS011;4667;42.726;23.252;2023-03-13T23:09:42;21.53;;;11.00;;
9260;SDS011;4667;42.726;23.252;2023-03-13T23:12:08;16.73;;;9.83;;
9260;SDS011;4667;42.726;23.252;2023-03-13T23:14:35;13.77;;;9.07;;